sensor_id;sensor_type;location;lat;lon;timestamp;P1;durP1;ratioP1;P2;durP2;ratioP2
20022;SDS011;10172;42.054;24.546;2023-05-20T00:02:09;6.65;;;3.65;;
20022;SDS011;10172;42.054;24.546;2023-05-20T00:04:35;5.07;;;3.20;;
20022;SDS011;10172;42.054;24.546;2023-05-20T00:07:00;8.52;;;3.22;;
20022;SDS011;10172;42.054;24.546;2023-05-20T00:09:26;6.53;;;3.53;;
20022;SDS011;10172;42.054;24.546;2023-05-20T00:11:51;6.38;;;3.72;;
20022;SDS011;10172;42.054;24.546;2023-05-20T00:14:17;6.85;;;3.40;;
20022;SDS011;10172;42.054;24.546;2023-05-20T00:16:42;5.30;;;3.15;;
20022;SDS011;10172;42.054;24.546;2023-05-20T00:19:08;5.00;;;3.20;;
20022;SDS011;10172;42.054;24.546;2023-05-20T00:21:33;4.72;;;3.33;;
20022;SDS011;10172;42.054;24.546;2023-05-20T00:23:59;5.35;;;3.35;;
20022;SDS011;10172;42.054;24.546;2023-05-20T00:26:25;5.63;;;3.42;;
20022;SDS011;10172;42.054;24.546;2023-05-20T00:28:53;8.20;;;3.75;;
20022;SDS011;10172;42.054;24.546;2023-05-20T00:31:18;5.18;;;3.13;;
20022;SDS011;10172;42.054;24.546;2023-05-20T00:33:44;5.47;;;3.47;;
20022;SDS011;10172;42.054;24.546;2023-05-20T00:36:09;14.45;;;3.60;;
20022;SDS011;10172;42.054;24.546;2023-05-20T00:38:35;5.75;;;3.20;;
20022;SDS011;10172;42.054;24.546;2023-05-20T00:41:00;5.40;;;3.08;;
20022;SDS011;10172;42.054;24.546;2023-05-20T00:43:26;7.32;;;3.38;;
20022;SDS011;10172;42.054;24.546;2023-05-20T00:45:51;6.45;;;3.58;;
20022;SDS011;10172;42.054;24.546;2023-05-20T00:48:18;10.57;;;4.15;;
20022;SDS011;10172;42.054;24.546;2023-05-20T00:50:45;6.13;;;3.67;;
20022;SDS011;10172;42.054;24.546;2023-05-20T00:53:12;6.03;;;3.67;;
20022;SDS011;10172;42.054;24.546;2023-05-20T00:55:39;6.68;;;3.50;;
20022;SDS011;10172;42.054;24.546;2023-05-20T00:58:04;7.95;;;3.15;;
20022;SDS011;10172;42.054;24.546;2023-05-20T01:00:30;4.68;;;3.33;;
20022;SDS011;10172;42.054;24.546;2023-05-20T01:02:55;4.30;;;3.35;;
20022;SDS011;10172;42.054;24.546;2023-05-20T01:05:21;9.00;;;3.47;;
20022;SDS011;10172;42.054;24.546;2023-05-20T01:07:46;6.65;;;3.72;;
20022;SDS011;10172;42.054;24.546;2023-05-20T01:10:12;6.45;;;4.05;;
20022;SDS011;10172;42.054;24.546;2023-05-20T01:12:38;8.32;;;3.75;;
20022;SDS011;10172;42.054;24.546;2023-05-20T01:15:09;6.82;;;3.45;;
20022;SDS011;10172;42.054;24.546;2023-05-20T01:17:43;7.43;;;3.67;;
20022;SDS011;10172;42.054;24.546;2023-05-20T01:20:11;5.93;;;4.10;;
20022;SDS011;10172;42.054;24.546;2023-05-20T01:22:45;5.72;;;3.92;;
20022;SDS011;10172;42.054;24.546;2023-05-20T01:25:17;8.57;;;3.70;;
20022;SDS011;10172;42.054;24.546;2023-05-20T01:27:43;5.43;;;3.20;;
20022;SDS011;10172;42.054;24.546;2023-05-20T01:30:09;8.52;;;3.97;;
20022;SDS011;10172;42.054;24.546;2023-05-20T01:32:36;6.57;;;3.88;;
20022;SDS011;10172;42.054;24.546;2023-05-20T01:35:04;7.38;;;3.58;;
20022;SDS011;10172;42.054;24.546;2023-05-20T01:37:31;7.03;;;3.63;;
20022;SDS011;10172;42.054;24.546;2023-05-20T01:39:59;8.07;;;3.53;;
20022;SDS011;10172;42.054;24.546;2023-05-20T01:42:26;6.07;;;3.70;;
20022;SDS011;10172;42.054;24.546;2023-05-20T01:44:53;6.10;;;3.95;;
20022;SDS011;10172;42.054;24.546;2023-05-20T01:47:18;4.70;;;3.38;;
20022;SDS011;10172;42.054;24.546;2023-05-20T01:49:44;7.50;;;3.50;;
20022;SDS011;10172;42.054;24.546;2023-05-20T01:52:10;6.93;;;3.90;;
20022;SDS011;10172;42.054;24.546;2023-05-20T01:54:36;7.30;;;3.28;;
20022;SDS011;10172;42.054;24.546;2023-05-20T01:57:01;5.97;;;3.80;;
20022;SDS011;10172;42.054;24.546;2023-05-20T01:59:27;8.25;;;3.80;;
20022;SDS011;10172;42.054;24.546;2023-05-20T02:01:52;6.93;;;3.67;;
20022;SDS011;10172;42.054;24.546;2023-05-20T02:04:18;6.00;;;3.75;;
20022;SDS011;10172;42.054;24.546;2023-05-20T02:06:45;7.22;;;3.55;;
20022;SDS011;10172;42.054;24.546;2023-05-20T02:09:10;6.45;;;3.90;;
20022;SDS011;10172;42.054;24.546;2023-05-20T02:11:36;7.72;;;3.75;;
20022;SDS011;10172;42.054;24.546;2023-05-20T02:14:01;6.50;;;3.55;;
20022;SDS011;10172;42.054;24.546;2023-05-20T02:16:27;7.10;;;3.75;;
20022;SDS011;10172;42.054;24.546;2023-05-20T02:18:52;9.23;;;4.07;;
20022;SDS011;10172;42.054;24.546;2023-05-20T02:21:18;6.15;;;3.72;;
20022;SDS011;10172;42.054;24.546;2023-05-20T02:23:43;5.40;;;3.13;;
20022;SDS011;10172;42.054;24.546;2023-05-20T02:26:09;6.10;;;3.70;;
20022;SDS011;10172;42.054;24.546;2023-05-20T02:28:34;4.75;;;2.90;;
20022;SDS011;10172;42.054;24.546;2023-05-20T02:31:04;5.20;;;3.25;;
20022;SDS011;10172;42.054;24.546;2023-05-20T02:33:30;7.88;;;4.07;;
20022;SDS011;10172;42.054;24.546;2023-05-20T02:35:55;6.70;;;3.50;;
20022;SDS011;10172;42.054;24.546;2023-05-20T02:38:21;5.13;;;3.13;;
20022;SDS011;10172;42.054;24.546;2023-05-20T02:40:47;5.75;;;3.70;;
20022;SDS011;10172;42.054;24.546;2023-05-20T02:43:12;5.10;;;3.45;;
20022;SDS011;10172;42.054;24.546;2023-05-20T02:45:38;5.90;;;4.00;;
20022;SDS011;10172;42.054;24.546;2023-05-20T02:48:03;5.70;;;3.70;;
20022;SDS011;10172;42.054;24.546;2023-05-20T02:50:29;6.63;;;3.53;;
20022;SDS011;10172;42.054;24.546;2023-05-20T02:52:55;11.43;;;3.90;;
20022;SDS011;10172;42.054;24.546;2023-05-20T02:55:21;8.07;;;3.95;;
20022;SDS011;10172;42.054;24.546;2023-05-20T02:57:47;6.90;;;3.90;;
20022;SDS011;10172;42.054;24.546;2023-05-20T03:00:13;8.68;;;3.40;;
20022;SDS011;10172;42.054;24.546;2023-05-20T03:02:38;7.80;;;3.80;;
20022;SDS011;10172;42.054;24.546;2023-05-20T03:05:04;6.82;;;3.75;;
20022;SDS011;10172;42.054;24.546;2023-05-20T03:07:30;7.53;;;3.80;;
20022;SDS011;10172;42.054;24.546;2023-05-20T03:09:58;7.60;;;3.67;;
20022;SDS011;10172;42.054;24.546;2023-05-20T03:12:23;7.38;;;3.72;;
20022;SDS011;10172;42.054;24.546;2023-05-20T03:14:50;8.07;;;3.80;;
20022;SDS011;10172;42.054;24.546;2023-05-20T03:17:19;5.72;;;3.58;;
20022;SDS011;10172;42.054;24.546;2023-05-20T03:19:45;6.22;;;3.90;;
20022;SDS011;10172;42.054;24.546;2023-05-20T03:22:11;7.43;;;4.00;;
20022;SDS011;10172;42.054;24.546;2023-05-20T03:24:36;5.18;;;3.38;;
20022;SDS011;10172;42.054;24.546;2023-05-20T03:27:02;7.40;;;3.95;;
20022;SDS011;10172;42.054;24.546;2023-05-20T03:29:28;5.68;;;3.53;;
20022;SDS011;10172;42.054;24.546;2023-05-20T03:31:53;7.63;;;3.67;;
20022;SDS011;10172;42.054;24.546;2023-05-20T03:34:19;7.93;;;3.40;;
20022;SDS011;10172;42.054;24.546;2023-05-20T03:36:44;6.13;;;4.22;;
20022;SDS011;10172;42.054;24.546;2023-05-20T03:39:10;5.70;;;3.50;;
20022;SDS011;10172;42.054;24.546;2023-05-20T03:41:35;7.25;;;3.92;;
20022;SDS011;10172;42.054;24.546;2023-05-20T03:44:02;7.35;;;3.58;;
20022;SDS011;10172;42.054;24.546;2023-05-20T03:46:27;4.97;;;3.22;;
20022;SDS011;10172;42.054;24.546;2023-05-20T03:48:54;7.85;;;3.88;;
20022;SDS011;10172;42.054;24.546;2023-05-20T03:51:20;6.60;;;3.78;;
20022;SDS011;10172;42.054;24.546;2023-05-20T03:53:46;5.13;;;3.53;;
20022;SDS011;10172;42.054;24.546;2023-05-20T03:56:11;7.20;;;3.15;;
20022;SDS011;10172;42.054;24.546;2023-05-20T03:58:36;5.35;;;3.45;;
20022;SDS011;10172;42.054;24.546;2023-05-20T04:01:02;7.43;;;3.45;;
20022;SDS011;10172;42.054;24.546;2023-05-20T04:03:28;8.05;;;3.97;;
20022;SDS011;10172;42.054;24.546;2023-05-20T04:05:54;5.75;;;3.70;;
20022;SDS011;10172;42.054;24.546;2023-05-20T04:08:19;6.85;;;4.43;;
20022;SDS011;10172;42.054;24.546;2023-05-20T04:10:46;6.57;;;4.22;;
20022;SDS011;10172;42.054;24.546;2023-05-20T04:13:11;8.98;;;4.50;;
20022;SDS011;10172;42.054;24.546;2023-05-20T04:15:37;7.47;;;3.90;;
20022;SDS011;10172;42.054;24.546;2023-05-20T04:18:03;7.28;;;3.80;;
20022;SDS011;10172;42.054;24.546;2023-05-20T04:20:32;5.95;;;3.60;;
20022;SDS011;10172;42.054;24.546;2023-05-20T04:22:57;7.72;;;3.85;;
20022;SDS011;10172;42.054;24.546;2023-05-20T04:25:23;6.53;;;3.97;;
20022;SDS011;10172;42.054;24.546;2023-05-20T04:27:50;4.55;;;2.95;;
20022;SDS011;10172;42.054;24.546;2023-05-20T04:30:18;5.38;;;3.20;;
20022;SDS011;10172;42.054;24.546;2023-05-20T04:32:45;7.20;;;3.50;;
20022;SDS011;10172;42.054;24.546;2023-05-20T04:35:12;6.90;;;3.78;;
20022;SDS011;10172;42.054;24.546;2023-05-20T04:37:38;10.00;;;4.05;;
20022;SDS011;10172;42.054;24.546;2023-05-20T04:40:04;6.03;;;3.40;;
20022;SDS011;10172;42.054;24.546;2023-05-20T04:42:31;7.03;;;3.67;;
20022;SDS011;10172;42.054;24.546;2023-05-20T04:44:58;5.60;;;3.28;;
20022;SDS011;10172;42.054;24.546;2023-05-20T04:47:26;7.07;;;3.20;;
20022;SDS011;10172;42.054;24.546;2023-05-20T04:49:53;6.07;;;3.58;;
20022;SDS011;10172;42.054;24.546;2023-05-20T04:52:21;7.28;;;4.07;;
20022;SDS011;10172;42.054;24.546;2023-05-20T04:54:50;5.22;;;3.47;;
20022;SDS011;10172;42.054;24.546;2023-05-20T04:57:16;6.57;;;3.90;;
20022;SDS011;10172;42.054;24.546;2023-05-20T04:59:45;7.05;;;4.20;;
20022;SDS011;10172;42.054;24.546;2023-05-20T05:02:13;5.07;;;3.80;;
20022;SDS011;10172;42.054;24.546;2023-05-20T05:04:39;10.25;;;4.90;;
20022;SDS011;10172;42.054;24.546;2023-05-20T05:07:04;6.53;;;4.22;;
20022;SDS011;10172;42.054;24.546;2023-05-20T05:09:30;5.97;;;3.88;;
20022;SDS011;10172;42.054;24.546;2023-05-20T05:11:55;6.75;;;3.80;;
20022;SDS011;10172;42.054;24.546;2023-05-20T05:14:21;5.03;;;3.30;;
20022;SDS011;10172;42.054;24.546;2023-05-20T05:16:47;5.25;;;3.13;;
20022;SDS011;10172;42.054;24.546;2023-05-20T05:19:13;7.10;;;3.65;;
20022;SDS011;10172;42.054;24.546;2023-05-20T05:21:39;7.43;;;4.18;;
20022;SDS011;10172;42.054;24.546;2023-05-20T05:24:05;8.00;;;3.60;;
20022;SDS011;10172;42.054;24.546;2023-05-20T05:26:30;5.50;;;3.78;;
20022;SDS011;10172;42.054;24.546;2023-05-20T05:28:56;8.32;;;4.53;;
20022;SDS011;10172;42.054;24.546;2023-05-20T05:31:21;6.60;;;3.78;;
20022;SDS011;10172;42.054;24.546;2023-05-20T05:33:47;8.57;;;4.07;;
20022;SDS011;10172;42.054;24.546;2023-05-20T05:36:12;9.73;;;4.45;;
20022;SDS011;10172;42.054;24.546;2023-05-20T05:38:38;7.63;;;4.10;;
20022;SDS011;10172;42.054;24.546;2023-05-20T05:41:03;7.05;;;3.22;;
20022;SDS011;10172;42.054;24.546;2023-05-20T05:43:29;7.57;;;3.58;;
20022;SDS011;10172;42.054;24.546;2023-05-20T05:45:54;10.15;;;3.72;;
20022;SDS011;10172;42.054;24.546;2023-05-20T05:48:20;7.07;;;3.70;;
20022;SDS011;10172;42.054;24.546;2023-05-20T05:50:47;7.93;;;3.70;;
20022;SDS011;10172;42.054;24.546;2023-05-20T05:53:12;7.20;;;3.55;;
20022;SDS011;10172;42.054;24.546;2023-05-20T05:55:38;5.90;;;3.53;;
20022;SDS011;10172;42.054;24.546;2023-05-20T05:58:03;4.90;;;3.20;;
20022;SDS011;10172;42.054;24.546;2023-05-20T06:00:29;6.95;;;3.92;;
20022;SDS011;10172;42.054;24.546;2023-05-20T06:02:54;8.50;;;3.50;;
20022;SDS011;10172;42.054;24.546;2023-05-20T06:05:20;5.93;;;3.42;;
20022;SDS011;10172;42.054;24.546;2023-05-20T06:07:45;5.65;;;3.63;;
20022;SDS011;10172;42.054;24.546;2023-05-20T06:10:11;5.32;;;2.95;;
20022;SDS011;10172;42.054;24.546;2023-05-20T06:12:36;5.88;;;3.03;;
20022;SDS011;10172;42.054;24.546;2023-05-20T06:15:02;8.98;;;3.55;;
20022;SDS011;10172;42.054;24.546;2023-05-20T06:17:28;4.50;;;2.72;;
20022;SDS011;10172;42.054;24.546;2023-05-20T06:19:53;6.50;;;3.42;;
20022;SDS011;10172;42.054;24.546;2023-05-20T06:22:19;5.72;;;2.50;;
20022;SDS011;10172;42.054;24.546;2023-05-20T06:24:44;5.80;;;2.78;;
20022;SDS011;10172;42.054;24.546;2023-05-20T06:27:10;4.22;;;2.78;;
20022;SDS011;10172;42.054;24.546;2023-05-20T06:29:36;5.30;;;3.15;;
20022;SDS011;10172;42.054;24.546;2023-05-20T06:32:01;5.72;;;2.78;;
20022;SDS011;10172;42.054;24.546;2023-05-20T06:34:27;6.35;;;2.97;;
20022;SDS011;10172;42.054;24.546;2023-05-20T06:36:52;5.78;;;2.88;;
20022;SDS011;10172;42.054;24.546;2023-05-20T06:39:18;3.70;;;2.67;;
20022;SDS011;10172;42.054;24.546;2023-05-20T06:41:43;4.78;;;2.88;;
20022;SDS011;10172;42.054;24.546;2023-05-20T06:44:08;4.88;;;3.00;;
20022;SDS011;10172;42.054;24.546;2023-05-20T06:46:34;6.05;;;3.17;;
20022;SDS011;10172;42.054;24.546;2023-05-20T06:49:00;7.60;;;2.67;;
20022;SDS011;10172;42.054;24.546;2023-05-20T06:51:26;5.47;;;2.72;;
20022;SDS011;10172;42.054;24.546;2023-05-20T06:53:52;4.05;;;2.63;;
20022;SDS011;10172;42.054;24.546;2023-05-20T06:56:18;3.47;;;2.35;;
20022;SDS011;10172;42.054;24.546;2023-05-20T06:58:43;5.68;;;2.83;;
20022;SDS011;10172;42.054;24.546;2023-05-20T07:01:09;6.28;;;2.90;;
20022;SDS011;10172;42.054;24.546;2023-05-20T07:03:34;4.40;;;2.55;;
20022;SDS011;10172;42.054;24.546;2023-05-20T07:06:00;5.35;;;2.88;;
20022;SDS011;10172;42.054;24.546;2023-05-20T07:08:25;4.57;;;2.72;;
20022;SDS011;10172;42.054;24.546;2023-05-20T07:10:51;5.40;;;3.10;;
20022;SDS011;10172;42.054;24.546;2023-05-20T07:13:20;4.03;;;2.58;;
20022;SDS011;10172;42.054;24.546;2023-05-20T07:15:48;3.90;;;2.45;;
20022;SDS011;10172;42.054;24.546;2023-05-20T07:18:14;5.40;;;2.92;;
20022;SDS011;10172;42.054;24.546;2023-05-20T07:20:40;5.50;;;2.80;;
20022;SDS011;10172;42.054;24.546;2023-05-20T07:23:05;6.93;;;2.70;;
20022;SDS011;10172;42.054;24.546;2023-05-20T07:25:31;6.22;;;3.45;;
20022;SDS011;10172;42.054;24.546;2023-05-20T07:27:56;4.20;;;2.65;;
20022;SDS011;10172;42.054;24.546;2023-05-20T07:30:23;5.45;;;2.90;;
20022;SDS011;10172;42.054;24.546;2023-05-20T07:32:49;6.18;;;3.13;;
20022;SDS011;10172;42.054;24.546;2023-05-20T07:35:14;4.43;;;3.13;;
20022;SDS011;10172;42.054;24.546;2023-05-20T07:37:40;7.97;;;2.95;;
20022;SDS011;10172;42.054;24.546;2023-05-20T07:40:06;4.80;;;2.67;;
20022;SDS011;10172;42.054;24.546;2023-05-20T07:42:32;3.72;;;2.55;;
20022;SDS011;10172;42.054;24.546;2023-05-20T07:44:58;4.78;;;2.70;;
20022;SDS011;10172;42.054;24.546;2023-05-20T07:47:23;5.22;;;2.50;;
20022;SDS011;10172;42.054;24.546;2023-05-20T07:49:49;5.88;;;3.15;;
20022;SDS011;10172;42.054;24.546;2023-05-20T07:52:14;4.32;;;3.03;;
20022;SDS011;10172;42.054;24.546;2023-05-20T07:54:40;6.45;;;3.38;;
20022;SDS011;10172;42.054;24.546;2023-05-20T07:57:06;4.95;;;2.95;;
20022;SDS011;10172;42.054;24.546;2023-05-20T07:59:31;4.15;;;2.80;;
20022;SDS011;10172;42.054;24.546;2023-05-20T08:01:57;5.35;;;2.88;;
20022;SDS011;10172;42.054;24.546;2023-05-20T08:04:22;5.53;;;3.30;;
20022;SDS011;10172;42.054;24.546;2023-05-20T08:06:48;4.90;;;3.03;;
20022;SDS011;10172;42.054;24.546;2023-05-20T08:09:14;5.60;;;2.78;;
20022;SDS011;10172;42.054;24.546;2023-05-20T08:11:40;5.55;;;3.05;;
20022;SDS011;10172;42.054;24.546;2023-05-20T08:14:05;8.40;;;3.72;;
20022;SDS011;10172;42.054;24.546;2023-05-20T08:16:31;6.10;;;3.33;;
20022;SDS011;10172;42.054;24.546;2023-05-20T08:18:56;7.90;;;2.63;;
20022;SDS011;10172;42.054;24.546;2023-05-20T08:21:22;5.70;;;2.65;;
20022;SDS011;10172;42.054;24.546;2023-05-20T08:23:48;4.78;;;3.10;;
20022;SDS011;10172;42.054;24.546;2023-05-20T08:26:13;5.65;;;2.70;;
20022;SDS011;10172;42.054;24.546;2023-05-20T08:28:39;3.15;;;2.22;;
20022;SDS011;10172;42.054;24.546;2023-05-20T08:31:05;5.32;;;3.30;;
20022;SDS011;10172;42.054;24.546;2023-05-20T08:33:30;6.00;;;3.08;;
20022;SDS011;10172;42.054;24.546;2023-05-20T08:35:56;9.27;;;2.92;;
20022;SDS011;10172;42.054;24.546;2023-05-20T08:38:21;5.68;;;3.03;;
20022;SDS011;10172;42.054;24.546;2023-05-20T08:40:54;4.78;;;2.63;;
20022;SDS011;10172;42.054;24.546;2023-05-20T08:43:21;4.30;;;2.47;;
20022;SDS011;10172;42.054;24.546;2023-05-20T08:45:47;5.40;;;3.03;;
20022;SDS011;10172;42.054;24.546;2023-05-20T08:48:14;7.53;;;3.22;;
20022;SDS011;10172;42.054;24.546;2023-05-20T08:50:41;5.60;;;3.25;;
20022;SDS011;10172;42.054;24.546;2023-05-20T08:53:08;6.13;;;2.80;;
20022;SDS011;10172;42.054;24.546;2023-05-20T08:55:38;6.25;;;3.25;;
20022;SDS011;10172;42.054;24.546;2023-05-20T08:58:08;5.80;;;2.97;;
20022;SDS011;10172;42.054;24.546;2023-05-20T09:00:34;6.35;;;3.20;;
20022;SDS011;10172;42.054;24.546;2023-05-20T09:02:59;5.10;;;2.85;;
20022;SDS011;10172;42.054;24.546;2023-05-20T09:05:25;4.18;;;2.65;;
20022;SDS011;10172;42.054;24.546;2023-05-20T09:07:51;5.97;;;3.22;;
20022;SDS011;10172;42.054;24.546;2023-05-20T09:10:18;7.60;;;4.07;;
20022;SDS011;10172;42.054;24.546;2023-05-20T09:12:44;7.25;;;2.90;;
20022;SDS011;10172;42.054;24.546;2023-05-20T09:15:09;7.85;;;3.83;;
20022;SDS011;10172;42.054;24.546;2023-05-20T09:17:35;7.65;;;3.83;;
20022;SDS011;10172;42.054;24.546;2023-05-20T09:20:08;7.47;;;3.88;;
20022;SDS011;10172;42.054;24.546;2023-05-20T09:22:35;4.97;;;2.95;;
20022;SDS011;10172;42.054;24.546;2023-05-20T09:25:01;5.20;;;2.88;;
20022;SDS011;10172;42.054;24.546;2023-05-20T09:27:27;5.88;;;2.58;;
20022;SDS011;10172;42.054;24.546;2023-05-20T09:29:52;7.90;;;3.40;;
20022;SDS011;10172;42.054;24.546;2023-05-20T09:32:19;5.72;;;3.03;;
20022;SDS011;10172;42.054;24.546;2023-05-20T09:34:48;8.15;;;2.90;;
20022;SDS011;10172;42.054;24.546;2023-05-20T09:37:14;4.70;;;3.05;;
20022;SDS011;10172;42.054;24.546;2023-05-20T09:39:45;4.47;;;2.53;;
20022;SDS011;10172;42.054;24.546;2023-05-20T09:44:50;4.50;;;2.42;;
20022;SDS011;10172;42.054;24.546;2023-05-20T09:47:18;4.13;;;2.60;;
20022;SDS011;10172;42.054;24.546;2023-05-20T09:49:47;4.57;;;3.05;;
20022;SDS011;10172;42.054;24.546;2023-05-20T09:52:14;4.57;;;2.75;;
20022;SDS011;10172;42.054;24.546;2023-05-20T09:54:41;3.92;;;2.63;;
20022;SDS011;10172;42.054;24.546;2023-05-20T09:57:08;4.10;;;2.22;;
20022;SDS011;10172;42.054;24.546;2023-05-20T09:59:35;5.38;;;2.78;;
20022;SDS011;10172;42.054;24.546;2023-05-20T10:02:02;8.32;;;3.00;;
20022;SDS011;10172;42.054;24.546;2023-05-20T10:04:30;4.72;;;2.55;;
20022;SDS011;10172;42.054;24.546;2023-05-20T10:15:25;4.38;;;2.35;;
20022;SDS011;10172;42.054;24.546;2023-05-20T10:20:49;4.95;;;2.80;;
20022;SDS011;10172;42.054;24.546;2023-05-20T10:23:28;7.75;;;2.92;;
20022;SDS011;10172;42.054;24.546;2023-05-20T10:25:54;8.15;;;2.83;;
20022;SDS011;10172;42.054;24.546;2023-05-20T10:28:31;6.25;;;2.70;;
20022;SDS011;10172;42.054;24.546;2023-05-20T10:31:00;5.40;;;2.78;;
20022;SDS011;10172;42.054;24.546;2023-05-20T10:33:26;7.68;;;3.72;;
20022;SDS011;10172;42.054;24.546;2023-05-20T10:35:52;7.82;;;3.50;;
20022;SDS011;10172;42.054;24.546;2023-05-20T10:38:19;3.65;;;2.15;;
20022;SDS011;10172;42.054;24.546;2023-05-20T10:40:45;5.53;;;2.63;;
20022;SDS011;10172;42.054;24.546;2023-05-20T10:43:12;3.65;;;2.38;;
20022;SDS011;10172;42.054;24.546;2023-05-20T10:45:52;3.60;;;2.42;;
20022;SDS011;10172;42.054;24.546;2023-05-20T10:48:22;4.45;;;2.90;;
20022;SDS011;10172;42.054;24.546;2023-05-20T10:50:58;5.70;;;2.65;;
20022;SDS011;10172;42.054;24.546;2023-05-20T10:53:28;7.13;;;2.90;;
20022;SDS011;10172;42.054;24.546;2023-05-20T10:55:54;5.45;;;3.10;;
20022;SDS011;10172;42.054;24.546;2023-05-20T10:58:23;5.28;;;3.25;;
20022;SDS011;10172;42.054;24.546;2023-05-20T11:00:52;3.78;;;2.70;;
20022;SDS011;10172;42.054;24.546;2023-05-20T11:03:20;5.72;;;2.75;;
20022;SDS011;10172;42.054;24.546;2023-05-20T11:05:46;3.85;;;3.20;;
20022;SDS011;10172;42.054;24.546;2023-05-20T11:08:12;5.82;;;3.47;;
20022;SDS011;10172;42.054;24.546;2023-05-20T11:10:38;7.03;;;3.35;;
20022;SDS011;10172;42.054;24.546;2023-05-20T11:13:03;5.43;;;3.65;;
20022;SDS011;10172;42.054;24.546;2023-05-20T11:15:29;5.38;;;3.30;;
20022;SDS011;10172;42.054;24.546;2023-05-20T11:17:56;6.25;;;3.47;;
20022;SDS011;10172;42.054;24.546;2023-05-20T11:20:25;6.30;;;3.13;;
20022;SDS011;10172;42.054;24.546;2023-05-20T11:22:51;5.72;;;3.42;;
20022;SDS011;10172;42.054;24.546;2023-05-20T11:25:18;7.32;;;3.20;;
20022;SDS011;10172;42.054;24.546;2023-05-20T11:27:43;6.88;;;4.00;;
20022;SDS011;10172;42.054;24.546;2023-05-20T11:30:10;5.95;;;3.20;;
20022;SDS011;10172;42.054;24.546;2023-05-20T11:32:41;7.45;;;3.97;;
20022;SDS011;10172;42.054;24.546;2023-05-20T11:35:20;5.43;;;3.15;;
20022;SDS011;10172;42.054;24.546;2023-05-20T11:37:53;5.85;;;3.55;;
20022;SDS011;10172;42.054;24.546;2023-05-20T11:40:22;5.55;;;3.33;;
20022;SDS011;10172;42.054;24.546;2023-05-20T11:42:51;6.38;;;3.00;;
20022;SDS011;10172;42.054;24.546;2023-05-20T11:45:18;3.17;;;2.20;;
20022;SDS011;10172;42.054;24.546;2023-05-20T11:47:43;5.10;;;2.63;;
20022;SDS011;10172;42.054;24.546;2023-05-20T11:50:10;6.28;;;2.80;;
20022;SDS011;10172;42.054;24.546;2023-05-20T11:52:41;5.53;;;2.90;;
20022;SDS011;10172;42.054;24.546;2023-05-20T11:55:09;4.65;;;3.00;;
20022;SDS011;10172;42.054;24.546;2023-05-20T11:57:36;4.07;;;2.60;;
20022;SDS011;10172;42.054;24.546;2023-05-20T12:00:02;3.97;;;2.30;;
20022;SDS011;10172;42.054;24.546;2023-05-20T12:02:31;4.03;;;2.47;;
20022;SDS011;10172;42.054;24.546;2023-05-20T12:04:56;6.68;;;2.97;;
20022;SDS011;10172;42.054;24.546;2023-05-20T12:07:22;5.00;;;2.92;;
20022;SDS011;10172;42.054;24.546;2023-05-20T12:09:47;3.20;;;2.63;;
20022;SDS011;10172;42.054;24.546;2023-05-20T12:12:13;4.97;;;2.60;;
20022;SDS011;10172;42.054;24.546;2023-05-20T12:14:38;4.45;;;2.72;;
20022;SDS011;10172;42.054;24.546;2023-05-20T12:17:04;5.10;;;3.05;;
20022;SDS011;10172;42.054;24.546;2023-05-20T12:19:29;6.70;;;3.13;;
20022;SDS011;10172;42.054;24.546;2023-05-20T12:21:55;6.57;;;3.20;;
20022;SDS011;10172;42.054;24.546;2023-05-20T12:24:20;4.07;;;2.63;;
20022;SDS011;10172;42.054;24.546;2023-05-20T12:26:46;3.58;;;2.22;;
20022;SDS011;10172;42.054;24.546;2023-05-20T12:29:11;5.80;;;3.00;;
20022;SDS011;10172;42.054;24.546;2023-05-20T12:31:37;3.33;;;2.40;;
20022;SDS011;10172;42.054;24.546;2023-05-20T12:34:02;5.35;;;2.72;;
20022;SDS011;10172;42.054;24.546;2023-05-20T12:36:28;4.95;;;2.22;;
20022;SDS011;10172;42.054;24.546;2023-05-20T12:38:53;6.82;;;2.58;;
20022;SDS011;10172;42.054;24.546;2023-05-20T12:41:19;4.80;;;2.60;;
20022;SDS011;10172;42.054;24.546;2023-05-20T12:43:45;4.10;;;2.45;;
20022;SDS011;10172;42.054;24.546;2023-05-20T12:46:10;4.03;;;2.40;;
20022;SDS011;10172;42.054;24.546;2023-05-20T12:48:36;5.75;;;2.40;;
20022;SDS011;10172;42.054;24.546;2023-05-20T12:51:01;4.07;;;2.25;;
20022;SDS011;10172;42.054;24.546;2023-05-20T12:53:27;4.32;;;2.05;;
20022;SDS011;10172;42.054;24.546;2023-05-20T12:55:52;4.20;;;2.67;;
20022;SDS011;10172;42.054;24.546;2023-05-20T12:58:18;3.88;;;2.10;;
20022;SDS011;10172;42.054;24.546;2023-05-20T13:00:43;4.15;;;2.50;;
20022;SDS011;10172;42.054;24.546;2023-05-20T13:03:09;6.15;;;2.40;;
20022;SDS011;10172;42.054;24.546;2023-05-20T13:05:35;5.32;;;2.38;;
20022;SDS011;10172;42.054;24.546;2023-05-20T13:08:00;5.55;;;2.00;;
20022;SDS011;10172;42.054;24.546;2023-05-20T13:10:26;6.53;;;2.30;;
20022;SDS011;10172;42.054;24.546;2023-05-20T13:12:52;3.95;;;2.60;;
20022;SDS011;10172;42.054;24.546;2023-05-20T13:15:17;6.32;;;2.55;;
20022;SDS011;10172;42.054;24.546;2023-05-20T13:17:43;6.25;;;2.58;;
20022;SDS011;10172;42.054;24.546;2023-05-20T13:20:08;3.60;;;2.25;;
20022;SDS011;10172;42.054;24.546;2023-05-20T13:22:35;4.30;;;1.88;;
20022;SDS011;10172;42.054;24.546;2023-05-20T13:25:00;6.85;;;3.22;;
20022;SDS011;10172;42.054;24.546;2023-05-20T13:27:26;5.38;;;2.65;;
20022;SDS011;10172;42.054;24.546;2023-05-20T13:29:52;4.53;;;2.45;;
20022;SDS011;10172;42.054;24.546;2023-05-20T13:32:17;6.60;;;2.38;;
20022;SDS011;10172;42.054;24.546;2023-05-20T13:34:43;5.30;;;2.50;;
20022;SDS011;10172;42.054;24.546;2023-05-20T13:37:08;4.07;;;2.30;;
20022;SDS011;10172;42.054;24.546;2023-05-20T13:39:34;4.30;;;2.17;;
20022;SDS011;10172;42.054;24.546;2023-05-20T13:42:00;4.93;;;2.53;;
20022;SDS011;10172;42.054;24.546;2023-05-20T13:44:26;6.30;;;2.70;;
20022;SDS011;10172;42.054;24.546;2023-05-20T13:46:51;5.75;;;1.92;;
20022;SDS011;10172;42.054;24.546;2023-05-20T13:49:16;3.85;;;1.98;;
20022;SDS011;10172;42.054;24.546;2023-05-20T13:51:42;3.65;;;2.30;;
20022;SDS011;10172;42.054;24.546;2023-05-20T13:54:07;4.53;;;2.10;;
20022;SDS011;10172;42.054;24.546;2023-05-20T13:56:33;5.13;;;2.42;;
20022;SDS011;10172;42.054;24.546;2023-05-20T13:58:59;7.55;;;2.28;;
20022;SDS011;10172;42.054;24.546;2023-05-20T14:01:24;5.13;;;2.35;;
20022;SDS011;10172;42.054;24.546;2023-05-20T14:03:49;3.65;;;2.22;;
20022;SDS011;10172;42.054;24.546;2023-05-20T14:06:15;3.38;;;2.35;;
20022;SDS011;10172;42.054;24.546;2023-05-20T14:08:43;4.45;;;2.20;;
20022;SDS011;10172;42.054;24.546;2023-05-20T14:11:10;5.95;;;2.88;;
20022;SDS011;10172;42.054;24.546;2023-05-20T14:13:35;5.45;;;2.42;;
20022;SDS011;10172;42.054;24.546;2023-05-20T14:16:01;4.25;;;2.25;;
20022;SDS011;10172;42.054;24.546;2023-05-20T14:18:26;4.93;;;2.40;;
20022;SDS011;10172;42.054;24.546;2023-05-20T14:20:52;4.95;;;2.45;;
20022;SDS011;10172;42.054;24.546;2023-05-20T14:23:17;3.17;;;2.08;;
20022;SDS011;10172;42.054;24.546;2023-05-20T14:25:43;3.83;;;2.28;;
20022;SDS011;10172;42.054;24.546;2023-05-20T14:28:08;3.70;;;2.03;;
20022;SDS011;10172;42.054;24.546;2023-05-20T14:30:34;5.63;;;2.67;;
20022;SDS011;10172;42.054;24.546;2023-05-20T14:32:59;3.17;;;2.05;;
20022;SDS011;10172;42.054;24.546;2023-05-20T14:35:25;3.88;;;2.33;;
20022;SDS011;10172;42.054;24.546;2023-05-20T14:37:51;5.18;;;2.22;;
20022;SDS011;10172;42.054;24.546;2023-05-20T14:40:16;4.07;;;2.20;;
20022;SDS011;10172;42.054;24.546;2023-05-20T14:42:42;4.40;;;2.85;;